Time;durP1;ratioP1;P1;durP2;ratioP2;P2;SDS_P1;SDS_P2;PMS_P1;PMS_P2;Temp;Humidity;BMP_temperature;BMP_pressure;BME280_temperature;BME280_humidity;BME280_pressure;Samples;Min_cycle;Max_cycle;Signal;HPM_P1;HPM_P2
2023/05/13 00:00:10;;;;;;;;;;;11.00;99.90;;;;;;5073655;28;20606;-86
2023/05/13 00:02:36;;;;;;;;;;;10.80;99.90;;;;;;5073080;28;19949;-85
2023/05/13 00:05:01;;;;;;;;;;;10.90;99.90;;;;;;5073167;28;19912;-86
2023/05/13 00:07:27;;;;;;;;;;;10.90;99.90;;;;;;5074153;28;19912;-85
2023/05/13 00:09:52;;;;;;;;;;;10.90;99.90;;;;;;5073193;28;19910;-85
2023/05/13 00:12:18;;;;;;;;;;;10.90;99.90;;;;;;5073431;28;19904;-85
2023/05/13 00:14:44;;;;;;;;;;;10.90;99.90;;;;;;5073058;28;19931;-83
2023/05/13 00:17:09;;;;;;;;;;;10.90;99.90;;;;;;5072776;28;19920;-86
2023/05/13 00:19:35;;;;;;;;;;;10.90;99.90;;;;;;5072953;28;19909;-85
2023/05/13 00:22:01;;;;;;;;;;;10.90;99.90;;;;;;5072089;28;20623;-86
2023/05/13 00:24:26;;;;;;;;;;;10.90;99.90;;;;;;5072107;28;19970;-87
2023/05/13 00:26:52;;;;;;;;;;;10.90;99.90;;;;;;5072448;28;19908;-86
2023/05/13 00:29:18;;;;;;;;;;;10.90;99.90;;;;;;5071190;28;19915;-86
2023/05/13 00:31:43;;;;;;;;;;;10.90;99.90;;;;;;5070354;28;20283;-86
2023/05/13 00:34:09;;;;;;;;;;;10.90;99.90;;;;;;5073701;28;19904;-85
2023/05/13 00:36:34;;;;;;;;;;;10.90;99.90;;;;;;5072679;28;19908;-86
2023/05/13 00:39:00;;;;;;;;;;;10.90;99.90;;;;;;5072435;28;19916;-87
2023/05/13 00:41:25;;;;;;;;;;;10.90;99.90;;;;;;5072626;28;19927;-87
2023/05/13 00:43:55;;;;;;;;;;;10.90;99.90;;;;;;5072456;28;19954;-86
2023/05/13 00:46:21;;;;;;;;;;;10.90;99.90;;;;;;5072552;28;19920;-86
2023/05/13 00:48:47;;;;;;;;;;;10.90;99.90;;;;;;5072352;28;19909;-86
2023/05/13 00:51:12;;;;;;;;;;;10.90;99.90;;;;;;5072193;28;20289;-86
2023/05/13 00:53:38;;;;;;;;;;;10.90;99.90;;;;;;5072296;28;20353;-86
2023/05/13 00:56:04;;;;;;;;;;;10.90;99.90;;;;;;5072155;28;20327;-86
2023/05/13 00:58:30;;;;;;;;;;;10.90;99.90;;;;;;5072268;28;19958;-85
2023/05/13 01:00:55;;;;;;;;;;;10.80;99.90;;;;;;5071880;28;19911;-84
2023/05/13 01:03:26;;;;;;;;;;;10.80;99.90;;;;;;5073604;28;20273;-86
2023/05/13 01:06:10;;;;;;;;;;;10.80;99.90;;;;;;5071989;28;20324;-86
2023/05/13 01:08:51;;;;;;;;;;;10.80;99.90;;;;;;5071866;28;20429;-84
2023/05/13 01:11:22;;;;;;;;;;;10.80;99.90;;;;;;5071405;28;19952;-85
2023/05/13 01:13:49;;;;;;;;;;;10.80;99.90;;;;;;5071993;28;19904;-87
2023/05/13 01:16:14;;;;;;;;;;;10.80;99.90;;;;;;5072020;28;19961;-86
2023/05/13 01:18:44;;;;;;;;;;;10.70;99.90;;;;;;5071867;28;19994;-86
2023/05/13 01:21:10;;;;;;;;;;;10.70;99.90;;;;;;5071972;28;19909;-85
2023/05/13 01:23:36;;;;;;;;;;;10.70;99.90;;;;;;5072064;28;20423;-86
2023/05/13 01:26:01;;;;;;;;;;;10.70;99.90;;;;;;5072047;28;19912;-86
2023/05/13 01:28:27;;;;;;;;;;;10.70;99.90;;;;;;5071931;28;19909;-86
2023/05/13 01:30:55;;;;;;;;;;;10.70;99.90;;;;;;5072069;28;19998;-87
2023/05/13 01:33:20;;;;;;;;;;;10.70;99.90;;;;;;5071575;28;19904;-88
2023/05/13 01:35:46;;;;;;;;;;;10.70;99.90;;;;;;5072413;28;20064;-88
2023/05/13 01:38:13;;;;;;;;;;;10.70;99.90;;;;;;5071835;28;20414;-87
2023/05/13 01:40:40;;;;;;;;;;;10.70;99.90;;;;;;5071793;28;19909;-85
2023/05/13 01:43:05;;;;;;;;;;;10.60;99.90;;;;;;5072536;28;20399;-85
2023/05/13 01:45:32;;;;;;;;;;;10.70;99.90;;;;;;5071445;28;19913;-86
2023/05/13 01:47:57;;;;;;;;;;;10.60;99.90;;;;;;5079433;28;19977;-85
2023/05/13 01:50:23;;;;;;;;;;;10.60;99.90;;;;;;5089667;28;19893;-87
2023/05/13 01:52:49;;;;;;;;;;;10.60;99.90;;;;;;5080628;28;19919;-86
2023/05/13 01:55:14;;;;;;;;;;;10.60;99.90;;;;;;5072042;28;19912;-86
2023/05/13 01:57:40;;;;;;;;;;;10.60;99.90;;;;;;5072028;28;19905;-87
2023/05/13 02:00:06;;;;;;;;;;;10.60;99.90;;;;;;5072836;28;19904;-87
2023/05/13 02:02:32;;;;;;;;;;;10.60;99.90;;;;;;5072070;28;19905;-86
2023/05/13 02:04:58;;;;;;;;;;;10.60;99.90;;;;;;5072907;28;20299;-88
2023/05/13 02:07:23;;;;;;;;;;;10.50;99.90;;;;;;5071864;28;19905;-87
2023/05/13 02:09:49;;;;;;;;;;;10.50;99.90;;;;;;5071362;28;19909;-87
2023/05/13 02:12:15;;;;;;;;;;;10.50;99.90;;;;;;5071131;28;20006;-86
2023/05/13 02:14:40;;;;;;;;;;;10.50;99.90;;;;;;5074489;28;19905;-86
2023/05/13 02:17:06;;;;;;;;;;;10.40;99.90;;;;;;5075742;28;19912;-88
2023/05/13 02:19:31;;;;;;;;;;;10.40;99.90;;;;;;5075507;28;19955;-85
2023/05/13 02:21:57;;;;;;;;;;;10.40;99.90;;;;;;5075033;28;20352;-85
2023/05/13 02:24:22;;;;;;;;;;;10.30;99.90;;;;;;5074584;28;19939;-85
2023/05/13 02:26:48;;;;;;;;;;;10.30;99.90;;;;;;5075270;28;19961;-85
2023/05/13 02:29:13;;;;;;;;;;;10.30;99.90;;;;;;5074585;28;19908;-85
2023/05/13 02:31:41;;;;;;;;;;;10.30;99.90;;;;;;5075002;28;19995;-88
2023/05/13 02:34:07;;;;;;;;;;;10.30;99.90;;;;;;5075239;28;19927;-87
2023/05/13 02:36:33;;;;;;;;;;;10.30;99.90;;;;;;5075151;28;19904;-87
2023/05/13 02:38:58;;;;;;;;;;;10.30;99.90;;;;;;5074867;28;19904;-87
2023/05/13 02:41:24;;;;;;;;;;;10.30;99.90;;;;;;5076196;28;19947;-88
2023/05/13 02:43:49;;;;;;;;;;;10.20;99.90;;;;;;5074999;28;19919;-87
2023/05/13 02:46:15;;;;;;;;;;;10.30;99.90;;;;;;5074163;28;19959;-87
2023/05/13 02:48:40;;;;;;;;;;;10.20;99.90;;;;;;5073127;28;19915;-87
2023/05/13 02:51:06;;;;;;;;;;;10.20;99.90;;;;;;5074947;28;19904;-88
2023/05/13 02:53:32;;;;;;;;;;;10.10;99.90;;;;;;5074302;28;20003;-87
2023/05/13 02:55:58;;;;;;;;;;;10.20;99.90;;;;;;5074103;28;19950;-87
2023/05/13 02:58:23;;;;;;;;;;;10.10;99.90;;;;;;5074102;28;19905;-89
2023/05/13 03:00:49;;;;;;;;;;;10.10;99.90;;;;;;5073787;28;19904;-87
2023/05/13 03:03:15;;;;;;;;;;;10.10;99.90;;;;;;5074084;28;20253;-87
2023/05/13 03:05:40;;;;;;;;;;;10.10;99.90;;;;;;5074413;28;20049;-87
2023/05/13 03:08:06;;;;;;;;;;;10.10;99.90;;;;;;5072932;28;19911;-83
2023/05/13 03:10:31;;;;;;;;;;;10.10;99.90;;;;;;5072930;28;20445;-84
2023/05/13 03:12:57;;;;;;;;;;;10.00;99.90;;;;;;5072861;28;19930;-84
2023/05/13 03:15:22;;;;;;;;;;;10.00;99.90;;;;;;5073027;28;19904;-83
2023/05/13 03:17:48;;;;;;;;;;;10.00;99.90;;;;;;5073710;28;19927;-83
2023/05/13 03:20:13;;;;;;;;;;;10.00;99.90;;;;;;5073241;28;20388;-84
2023/05/13 03:22:39;;;;;;;;;;;10.00;99.90;;;;;;5073501;28;19905;-84
2023/05/13 03:25:05;;;;;;;;;;;10.00;99.90;;;;;;5072952;28;19979;-84
2023/05/13 03:27:31;;;;;;;;;;;9.90;99.90;;;;;;5073300;28;19927;-84
2023/05/13 03:29:56;;;;;;;;;;;9.90;99.90;;;;;;5074009;28;20353;-84
2023/05/13 03:32:24;;;;;;;;;;;9.90;99.90;;;;;;5073850;28;19995;-84
2023/05/13 03:34:50;;;;;;;;;;;10.00;99.90;;;;;;5072272;28;19978;-83
2023/05/13 03:37:16;;;;;;;;;;;9.90;99.90;;;;;;5071347;28;19908;-86
2023/05/13 03:39:41;;;;;;;;;;;9.90;99.90;;;;;;5072423;28;19991;-88
2023/05/13 03:42:07;;;;;;;;;;;9.90;99.90;;;;;;5073807;28;19967;-86
2023/05/13 03:44:32;;;;;;;;;;;9.90;99.90;;;;;;5073511;28;19908;-86
2023/05/13 03:46:58;;;;;;;;;;;9.90;99.90;;;;;;5073861;28;20460;-86
2023/05/13 03:49:23;;;;;;;;;;;9.90;99.90;;;;;;5071071;28;19904;-85
2023/05/13 03:51:49;;;;;;;;;;;9.80;99.90;;;;;;5071250;28;19908;-86
2023/05/13 03:54:14;;;;;;;;;;;9.80;99.90;;;;;;5072286;28;19908;-86
2023/05/13 03:56:40;;;;;;;;;;;9.90;99.90;;;;;;5073402;28;19904;-86
2023/05/13 03:59:06;;;;;;;;;;;9.90;99.90;;;;;;5071798;28;19912;-87
2023/05/13 04:01:31;;;;;;;;;;;9.90;99.90;;;;;;5073131;28;19911;-86
2023/05/13 04:03:57;;;;;;;;;;;9.90;99.90;;;;;;5073261;28;19991;-87
2023/05/13 04:06:22;;;;;;;;;;;9.90;99.90;;;;;;5073423;28;20369;-87
2023/05/13 04:08:49;;;;;;;;;;;9.90;99.90;;;;;;5071821;28;19915;-84
2023/05/13 04:11:15;;;;;;;;;;;9.90;99.90;;;;;;5073387;28;19962;-87
2023/05/13 04:13:42;;;;;;;;;;;10.00;99.90;;;;;;5071411;28;19904;-86
2023/05/13 04:16:08;;;;;;;;;;;9.90;99.90;;;;;;5071656;28;19911;-85
2023/05/13 04:18:33;;;;;;;;;;;9.90;99.90;;;;;;5071015;28;19912;-85
2023/05/13 04:20:59;;;;;;;;;;;9.90;99.90;;;;;;5070956;28;19915;-89
2023/05/13 04:23:25;;;;;;;;;;;10.00;99.90;;;;;;5073766;28;19920;-86
2023/05/13 04:25:51;;;;;;;;;;;10.00;99.90;;;;;;5071548;28;19920;-86
2023/05/13 04:28:17;;;;;;;;;;;10.00;99.90;;;;;;5071868;28;20003;-86
2023/05/13 04:30:42;;;;;;;;;;;10.00;99.90;;;;;;5071819;28;20431;-84
2023/05/13 04:33:08;;;;;;;;;;;10.00;99.90;;;;;;5071836;28;20414;-84
2023/05/13 04:35:33;;;;;;;;;;;10.00;99.90;;;;;;5069852;28;19908;-85
2023/05/13 04:37:59;;;;;;;;;;;10.00;99.90;;;;;;5072263;28;20001;-89
2023/05/13 04:40:25;;;;;;;;;;;10.00;99.90;;;;;;5081909;28;19908;-86
2023/05/13 04:42:53;;;;;;;;;;;10.10;99.90;;;;;;5086134;28;19940;-88
2023/05/13 04:45:19;;;;;;;;;;;10.00;99.90;;;;;;5074953;28;19962;-88
2023/05/13 04:47:45;;;;;;;;;;;10.10;99.90;;;;;;5073094;28;19943;-89
2023/05/13 04:50:10;;;;;;;;;;;10.10;99.90;;;;;;5072040;28;20344;-89
2023/05/13 04:52:36;;;;;;;;;;;10.00;99.90;;;;;;5073197;28;20007;-87
2023/05/13 04:55:01;;;;;;;;;;;10.00;99.90;;;;;;5071415;28;19905;-87
2023/05/13 04:57:27;;;;;;;;;;;10.00;99.90;;;;;;5071980;28;19944;-88
2023/05/13 04:59:53;;;;;;;;;;;10.10;99.90;;;;;;5070846;28;19915;-88
2023/05/13 05:02:18;;;;;;;;;;;10.10;99.90;;;;;;5070647;28;19904;-89
2023/05/13 05:04:44;;;;;;;;;;;10.00;99.90;;;;;;5073592;28;20363;-90
2023/05/13 05:07:09;;;;;;;;;;;10.00;99.90;;;;;;5071818;28;19954;-87
2023/05/13 05:09:35;;;;;;;;;;;9.90;99.90;;;;;;5070207;28;20003;-88
2023/05/13 05:12:00;;;;;;;;;;;9.90;99.90;;;;;;5069967;28;19905;-90
2023/05/13 05:14:26;;;;;;;;;;;9.90;99.90;;;;;;5072053;28;19984;-88
2023/05/13 05:16:51;;;;;;;;;;;9.90;99.90;;;;;;5070772;28;19905;-87
2023/05/13 05:19:22;;;;;;;;;;;9.90;99.90;;;;;;5073457;28;20380;-88
2023/05/13 05:21:48;;;;;;;;;;;10.00;99.90;;;;;;5071629;28;19915;-87
2023/05/13 05:24:14;;;;;;;;;;;10.00;99.90;;;;;;5069893;28;20266;-87
2023/05/13 05:26:39;;;;;;;;;;;9.90;99.90;;;;;;5070704;28;20368;-88
2023/05/13 05:29:05;;;;;;;;;;;10.00;99.90;;;;;;5070605;28;19966;-89
2023/05/13 05:31:31;;;;;;;;;;;10.00;99.90;;;;;;5070452;28;20455;-88
2023/05/13 05:33:56;;;;;;;;;;;10.10;99.90;;;;;;5070632;28;19962;-88
2023/05/13 05:36:22;;;;;;;;;;;10.00;99.90;;;;;;5071375;28;19905;-88
2023/05/13 05:38:47;;;;;;;;;;;10.10;99.90;;;;;;5071361;28;19908;-87
2023/05/13 05:41:13;;;;;;;;;;;10.20;99.90;;;;;;5070672;28;19932;-87
2023/05/13 05:43:38;;;;;;;;;;;10.10;99.90;;;;;;5068857;28;19908;-88
2023/05/13 05:46:04;;;;;;;;;;;10.10;99.90;;;;;;5069283;28;20378;-88
2023/05/13 05:48:29;;;;;;;;;;;10.10;99.90;;;;;;5072749;28;20364;-88
2023/05/13 05:50:55;;;;;;;;;;;10.10;99.90;;;;;;5073773;28;20432;-87
2023/05/13 05:53:21;;;;;;;;;;;10.10;99.90;;;;;;5073745;28;19951;-88
2023/05/13 05:55:46;;;;;;;;;;;10.10;99.90;;;;;;5073818;28;19904;-86
2023/05/13 05:58:15;;;;;;;;;;;10.00;99.90;;;;;;5073520;28;19905;-88
2023/05/13 06:00:41;;;;;;;;;;;10.10;99.90;;;;;;5073577;28;19904;-86
2023/05/13 06:03:06;;;;;;;;;;;10.10;99.90;;;;;;5073474;28;19912;-86
2023/05/13 06:05:32;;;;;;;;;;;10.20;99.90;;;;;;5073488;28;20034;-87
2023/05/13 06:07:57;;;;;;;;;;;10.20;99.90;;;;;;5074363;28;19911;-87
2023/05/13 06:10:23;;;;;;;;;;;10.20;99.90;;;;;;5073468;28;19914;-87
2023/05/13 06:12:50;;;;;;;;;;;10.20;99.90;;;;;;5074165;28;19905;-86
2023/05/13 06:15:15;;;;;;;;;;;10.20;99.90;;;;;;5074162;28;19908;-88
2023/05/13 06:17:41;;;;;;;;;;;10.20;99.90;;;;;;5075111;28;20322;-88
2023/05/13 06:20:06;;;;;;;;;;;10.20;99.90;;;;;;5074131;28;20360;-86
2023/05/13 06:22:32;;;;;;;;;;;10.30;99.90;;;;;;5072877;28;20336;-88
2023/05/13 06:24:58;;;;;;;;;;;10.30;99.90;;;;;;5074236;28;19923;-87
2023/05/13 06:27:23;;;;;;;;;;;10.30;99.90;;;;;;5073255;28;19904;-88
2023/05/13 06:29:49;;;;;;;;;;;10.30;99.90;;;;;;5072661;28;20285;-87
2023/05/13 06:32:15;;;;;;;;;;;10.30;99.90;;;;;;5072689;28;19904;-88
2023/05/13 06:34:44;;;;;;;;;;;10.30;99.90;;;;;;5074170;28;19974;-89
2023/05/13 06:37:10;;;;;;;;;;;10.30;99.90;;;;;;5072646;28;19908;-88
2023/05/13 06:39:36;;;;;;;;;;;10.30;99.90;;;;;;5074201;28;19908;-89
2023/05/13 06:42:01;;;;;;;;;;;10.30;99.90;;;;;;5074834;28;19908;-88
2023/05/13 06:44:27;;;;;;;;;;;10.30;99.90;;;;;;5073068;28;19912;-87
2023/05/13 06:46:53;;;;;;;;;;;10.40;99.90;;;;;;5073706;28;20003;-89
2023/05/13 06:49:18;;;;;;;;;;;10.30;99.90;;;;;;5074357;28;19908;-89
2023/05/13 06:51:44;;;;;;;;;;;10.40;99.90;;;;;;5073134;28;20399;-87
2023/05/13 06:54:09;;;;;;;;;;;10.50;99.90;;;;;;5074137;28;20207;-89
2023/05/13 06:56:35;;;;;;;;;;;10.60;99.90;;;;;;5073060;28;20005;-88
2023/05/13 06:59:00;;;;;;;;;;;10.60;99.90;;;;;;5073147;28;20574;-88
2023/05/13 07:01:26;;;;;;;;;;;10.70;99.90;;;;;;5073634;28;19967;-87
2023/05/13 07:03:52;;;;;;;;;;;10.70;99.90;;;;;;5072967;28;19904;-86
2023/05/13 07:06:17;;;;;;;;;;;10.80;99.90;;;;;;5072563;28;19920;-88
2023/05/13 07:08:43;;;;;;;;;;;10.80;99.90;;;;;;5072722;28;19909;-88
2023/05/13 07:11:08;;;;;;;;;;;10.90;99.90;;;;;;5072883;28;19954;-87
2023/05/13 07:13:34;;;;;;;;;;;10.90;99.90;;;;;;5073251;28;19905;-88
2023/05/13 07:16:01;;;;;;;;;;;10.90;99.90;;;;;;5075055;28;19912;-87
2023/05/13 07:18:27;;;;;;;;;;;10.90;99.90;;;;;;5076482;28;19911;-87
2023/05/13 07:20:53;;;;;;;;;;;10.90;99.90;;;;;;5077509;28;19905;-89
2023/05/13 07:23:18;;;;;;;;;;;10.90;99.90;;;;;;5074343;28;19908;-87
2023/05/13 07:25:44;;;;;;;;;;;10.90;99.90;;;;;;5075919;28;19916;-89
2023/05/13 07:28:10;;;;;;;;;;;11.00;99.90;;;;;;5075056;28;19915;-88
2023/05/13 07:30:38;;;;;;;;;;;11.10;99.90;;;;;;5077989;28;19965;-87
2023/05/13 07:33:04;;;;;;;;;;;11.10;99.90;;;;;;5097611;28;19987;-87
2023/05/13 07:35:30;;;;;;;;;;;11.10;99.90;;;;;;5091223;28;19954;-88
2023/05/13 07:37:55;;;;;;;;;;;11.10;99.90;;;;;;5075623;28;19908;-86
2023/05/13 07:40:21;;;;;;;;;;;11.20;99.90;;;;;;5072928;28;20387;-88
2023/05/13 07:42:47;;;;;;;;;;;11.30;99.90;;;;;;5071556;28;19908;-87
2023/05/13 07:45:12;;;;;;;;;;;11.10;99.90;;;;;;5072214;28;19927;-87
2023/05/13 07:47:38;;;;;;;;;;;11.20;99.90;;;;;;5071990;28;19973;-88
2023/05/13 07:50:03;;;;;;;;;;;11.30;99.90;;;;;;5071863;28;19936;-87
2023/05/13 07:52:29;;;;;;;;;;;11.30;99.90;;;;;;5072566;28;20442;-89
2023/05/13 07:54:55;;;;;;;;;;;11.30;99.90;;;;;;5072619;28;19915;-86
2023/05/13 07:57:20;;;;;;;;;;;11.40;99.90;;;;;;5071642;28;19911;-87
2023/05/13 07:59:46;;;;;;;;;;;11.40;99.90;;;;;;5069425;28;19940;-87
2023/05/13 08:02:11;;;;;;;;;;;11.50;99.90;;;;;;5071070;28;20015;-87
2023/05/13 08:04:37;;;;;;;;;;;11.40;99.90;;;;;;5071163;28;19939;-88
2023/05/13 08:07:03;;;;;;;;;;;11.40;99.90;;;;;;5072234;28;19912;-88
2023/05/13 08:09:29;;;;;;;;;;;11.40;99.90;;;;;;5071364;28;20192;-88
2023/05/13 08:11:54;;;;;;;;;;;11.40;99.90;;;;;;5071017;28;19908;-87
2023/05/13 08:14:20;;;;;;;;;;;11.50;99.90;;;;;;5071557;28;20007;-87
2023/05/13 08:16:46;;;;;;;;;;;11.50;99.90;;;;;;5070653;28;19970;-87
2023/05/13 08:19:13;;;;;;;;;;;11.50;99.90;;;;;;5070604;28;20435;-87
2023/05/13 08:21:38;;;;;;;;;;;11.50;99.90;;;;;;5071548;28;20284;-87
2023/05/13 08:24:04;;;;;;;;;;;11.40;99.90;;;;;;5071108;28;19908;-88
2023/05/13 08:26:29;;;;;;;;;;;11.50;99.90;;;;;;5070507;28;19924;-88
2023/05/13 08:28:56;;;;;;;;;;;11.50;99.90;;;;;;5071213;28;19908;-87
2023/05/13 08:31:23;;;;;;;;;;;11.50;99.90;;;;;;5071664;28;19908;-87
2023/05/13 08:33:50;;;;;;;;;;;11.50;99.90;;;;;;5071261;28;19948;-87
2023/05/13 08:36:16;;;;;;;;;;;11.50;99.90;;;;;;5072694;28;20352;-88
2023/05/13 08:38:42;;;;;;;;;;;11.60;99.90;;;;;;5070325;28;20401;-87
2023/05/13 08:41:11;;;;;;;;;;;11.70;99.90;;;;;;5073353;28;19915;-87
2023/05/13 08:43:37;;;;;;;;;;;11.70;99.90;;;;;;5072277;28;19915;-89
2023/05/13 08:46:05;;;;;;;;;;;11.70;99.90;;;;;;5070407;28;19916;-89
2023/05/13 08:48:31;;;;;;;;;;;11.70;99.90;;;;;;5070153;28;19908;-88
2023/05/13 08:50:57;;;;;;;;;;;11.70;99.90;;;;;;5070836;28;19908;-88
2023/05/13 08:53:24;;;;;;;;;;;11.70;99.90;;;;;;5071055;28;20106;-88
2023/05/13 08:55:50;;;;;;;;;;;11.70;99.90;;;;;;5070129;28;19908;-86
2023/05/13 08:58:16;;;;;;;;;;;11.70;99.90;;;;;;5071434;28;19918;-88
2023/05/13 09:00:41;;;;;;;;;;;11.80;99.90;;;;;;5070838;28;20390;-89
2023/05/13 09:03:07;;;;;;;;;;;11.90;99.90;;;;;;5070329;28;19904;-88
2023/05/13 09:05:33;;;;;;;;;;;12.00;99.90;;;;;;5071196;28;19923;-89
2023/05/13 09:08:03;;;;;;;;;;;12.00;99.90;;;;;;5073100;28;19995;-89
2023/05/13 09:10:29;;;;;;;;;;;12.00;99.90;;;;;;5070663;28;19954;-89
2023/05/13 09:12:54;;;;;;;;;;;12.10;99.90;;;;;;5070912;28;19904;-88
2023/05/13 09:15:24;;;;;;;;;;;12.20;99.90;;;;;;5072990;28;19905;-89
2023/05/13 09:18:00;;;;;;;;;;;12.20;99.90;;;;;;5071764;28;19939;-87
2023/05/13 09:20:26;;;;;;;;;;;12.30;99.90;;;;;;5070978;28;19912;-89
2023/05/13 09:22:52;;;;;;;;;;;12.40;99.90;;;;;;5070912;28;19944;-87
2023/05/13 09:25:18;;;;;;;;;;;12.40;99.90;;;;;;5070677;28;20353;-86
2023/05/13 09:27:50;;;;;;;;;;;12.60;99.90;;;;;;5070322;28;19904;-87
2023/05/13 09:30:16;;;;;;;;;;;12.70;99.90;;;;;;5071161;28;20376;-86
2023/05/13 09:32:42;;;;;;;;;;;12.70;99.90;;;;;;5071368;28;19994;-87
2023/05/13 09:35:17;;;;;;;;;;;12.70;99.90;;;;;;5070701;28;19944;-86
2023/05/13 09:37:44;;;;;;;;;;;12.80;99.90;;;;;;5070296;28;19905;-87
2023/05/13 09:40:10;;;;;;;;;;;12.80;99.90;;;;;;5071301;28;19905;-86
2023/05/13 09:42:39;;;;;;;;;;;12.70;99.90;;;;;;5070260;28;20345;-87
2023/05/13 09:45:05;;;;;;;;;;;12.70;99.90;;;;;;5069755;28;19924;-86
2023/05/13 09:47:31;;;;;;;;;;;12.70;99.90;;;;;;5070484;28;19905;-85
2023/05/13 09:49:57;;;;;;;;;;;12.70;99.90;;;;;;5070307;28;19904;-88
2023/05/13 09:52:22;;;;;;;;;;;12.70;99.90;;;;;;5069891;28;19932;-87
2023/05/13 09:54:48;;;;;;;;;;;12.70;99.90;;;;;;5070973;28;19911;-87
2023/05/13 09:57:13;;;;;;;;;;;12.70;99.90;;;;;;5069383;28;20272;-86
2023/05/13 09:59:40;;;;;;;;;;;12.80;99.90;;;;;;5069655;28;19905;-86
2023/05/13 10:02:06;;;;;;;;;;;13.00;99.90;;;;;;5068913;28;20388;-87
2023/05/13 10:04:32;;;;;;;;;;;13.00;99.90;;;;;;5069394;28;19915;-88
2023/05/13 10:06:58;;;;;;;;;;;13.10;99.90;;;;;;5070080;28;20296;-88
2023/05/13 10:09:25;;;;;;;;;;;13.30;99.90;;;;;;5069948;28;19944;-87
2023/05/13 10:11:51;;;;;;;;;;;13.30;99.90;;;;;;5069336;28;19983;-88
2023/05/13 10:14:17;;;;;;;;;;;13.50;99.90;;;;;;5069392;28;20296;-87
2023/05/13 10:16:44;;;;;;;;;;;13.50;99.90;;;;;;5070989;28;20400;-87
2023/05/13 10:19:10;;;;;;;;;;;13.60;99.90;;;;;;5072010;28;19908;-88
2023/05/13 10:21:36;;;;;;;;;;;13.70;99.90;;;;;;5077685;28;19913;-86
2023/05/13 10:24:02;;;;;;;;;;;13.70;99.90;;;;;;5092290;28;19960;-89
2023/05/13 10:26:28;;;;;;;;;;;13.70;99.90;;;;;;5076519;28;19916;-88
2023/05/13 10:28:54;;;;;;;;;;;13.70;99.90;;;;;;5071152;28;20028;-87
2023/05/13 10:31:19;;;;;;;;;;;13.70;99.90;;;;;;5069655;28;19999;-88
2023/05/13 10:33:45;;;;;;;;;;;13.70;99.90;;;;;;5070533;28;19959;-89
2023/05/13 10:36:21;;;;;;;;;;;13.80;99.90;;;;;;5073467;28;20002;-89
2023/05/13 10:38:59;;;;;;;;;;;13.80;99.90;;;;;;5068722;28;19958;-90
2023/05/13 10:41:25;;;;;;;;;;;13.80;99.90;;;;;;5073466;28;19908;-89
2023/05/13 10:43:57;;;;;;;;;;;13.60;99.90;;;;;;5073130;28;19905;-88
2023/05/13 10:46:23;;;;;;;;;;;13.70;99.90;;;;;;5073169;28;19912;-87
2023/05/13 10:48:50;;;;;;;;;;;13.70;99.90;;;;;;5073411;28;19904;-88
2023/05/13 10:51:16;;;;;;;;;;;13.70;99.90;;;;;;5072926;28;20380;-88
2023/05/13 10:54:02;;;;;;;;;;;13.60;99.90;;;;;;5074098;28;19930;-88
2023/05/13 10:56:28;;;;;;;;;;;13.60;99.90;;;;;;5072451;28;19966;-89
2023/05/13 10:58:57;;;;;;;;;;;13.60;99.90;;;;;;5074133;28;19948;-87
2023/05/13 11:01:29;;;;;;;;;;;13.70;99.90;;;;;;5072375;28;20407;-87
2023/05/13 11:03:56;;;;;;;;;;;13.60;99.90;;;;;;5073660;28;19904;-87
2023/05/13 11:06:23;;;;;;;;;;;13.60;99.90;;;;;;5073113;28;20385;-89
2023/05/13 11:08:50;;;;;;;;;;;13.60;99.90;;;;;;5072736;28;20453;-87
2023/05/13 11:11:36;;;;;;;;;;;13.70;99.90;;;;;;5072812;28;20213;-89
2023/05/13 11:14:05;;;;;;;;;;;13.80;99.90;;;;;;5071980;28;19908;-89
2023/05/13 11:16:32;;;;;;;;;;;13.90;99.90;;;;;;5074195;28;19904;-88
2023/05/13 11:18:57;;;;;;;;;;;14.00;99.90;;;;;;5073003;28;19987;-88
2023/05/13 11:21:34;;;;;;;;;;;14.00;99.90;;;;;;5072532;28;19999;-88
2023/05/13 11:24:04;;;;;;;;;;;13.90;99.90;;;;;;5072449;28;19918;-88
2023/05/13 11:27:08;;;;;;;;;;;13.90;99.90;;;;;;5075282;28;20285;-88
2023/05/13 11:29:35;;;;;;;;;;;13.90;99.90;;;;;;5032815;28;19915;-88
2023/05/13 11:32:02;;;;;;;;;;;14.10;99.90;;;;;;5050770;28;19911;-87
2023/05/13 11:34:28;;;;;;;;;;;14.20;99.90;;;;;;5069780;28;19993;-89
2023/05/13 11:37:02;;;;;;;;;;;14.30;99.90;;;;;;5074106;28;20372;-88
2023/05/13 11:39:28;;;;;;;;;;;14.40;99.90;;;;;;5070495;28;19908;-89
2023/05/13 11:41:56;;;;;;;;;;;14.60;99.90;;;;;;5073962;28;19958;-87
2023/05/13 11:44:23;;;;;;;;;;;14.60;99.90;;;;;;5073338;28;19904;-88
2023/05/13 11:46:52;;;;;;;;;;;14.60;99.90;;;;;;5072769;28;19915;-86
2023/05/13 11:49:36;;;;;;;;;;;14.50;99.90;;;;;;5072651;28;19970;-87
2023/05/13 11:52:03;;;;;;;;;;;14.60;99.90;;;;;;5072426;28;19952;-88
2023/05/13 11:54:29;;;;;;;;;;;14.60;99.90;;;;;;5073573;28;19909;-88
2023/05/13 11:56:54;;;;;;;;;;;14.70;99.90;;;;;;5073462;28;19905;-88
2023/05/13 11:59:20;;;;;;;;;;;14.80;99.90;;;;;;5072551;28;19911;-87
2023/05/13 12:01:48;;;;;;;;;;;14.90;99.90;;;;;;5072615;28;19909;-89
2023/05/13 12:04:14;;;;;;;;;;;15.10;99.90;;;;;;5072139;28;19935;-88
2023/05/13 12:06:44;;;;;;;;;;;15.20;99.90;;;;;;5071395;28;19916;-87
2023/05/13 12:09:10;;;;;;;;;;;15.30;99.90;;;;;;5071005;28;19915;-87
2023/05/13 12:11:36;;;;;;;;;;;15.50;99.90;;;;;;5071961;28;20008;-88
2023/05/13 12:14:02;;;;;;;;;;;15.50;99.90;;;;;;5072116;28;19951;-86
2023/05/13 12:16:28;;;;;;;;;;;15.60;99.90;;;;;;5067496;28;19904;-89
2023/05/13 12:18:55;;;;;;;;;;;15.70;99.90;;;;;;5068545;28;20277;-88
2023/05/13 12:21:21;;;;;;;;;;;15.70;99.90;;;;;;5072335;28;19916;-82
2023/05/13 12:23:46;;;;;;;;;;;15.90;99.90;;;;;;5067358;28;19908;-79
2023/05/13 12:26:12;;;;;;;;;;;15.90;99.90;;;;;;5069148;28;20296;-78
2023/05/13 12:28:37;;;;;;;;;;;16.00;99.90;;;;;;5069148;28;19919;-77
2023/05/13 12:31:06;;;;;;;;;;;15.90;99.90;;;;;;5063614;28;19908;-77
2023/05/13 12:33:33;;;;;;;;;;;15.90;99.90;;;;;;5057527;28;19914;-76
2023/05/13 12:36:13;;;;;;;;;;;15.90;99.90;;;;;;5069434;28;19908;-76
2023/05/13 12:38:39;;;;;;;;;;;15.80;99.90;;;;;;5069320;28;20402;-78
2023/05/13 12:41:13;;;;;;;;;;;15.70;99.90;;;;;;5069456;28;19942;-77
2023/05/13 12:43:39;;;;;;;;;;;15.60;99.90;;;;;;5069435;28;19957;-76
2023/05/13 12:46:06;;;;;;;;;;;15.50;99.90;;;;;;5069017;28;19923;-77
2023/05/13 12:48:31;;;;;;;;;;;15.40;99.90;;;;;;5069175;28;20438;-77
2023/05/13 12:50:57;;;;;;;;;;;15.40;99.90;;;;;;5069163;28;19908;-76
2023/05/13 12:53:23;;;;;;;;;;;15.60;99.90;;;;;;5069057;28;19908;-75
2023/05/13 12:55:49;;;;;;;;;;;15.60;99.90;;;;;;5069150;28;20027;-77
2023/05/13 12:58:14;;;;;;;;;;;15.60;99.90;;;;;;5068502;28;20012;-77
2023/05/13 13:00:40;;;;;;;;;;;15.80;99.90;;;;;;5067636;28;19913;-77
2023/05/13 13:03:06;;;;;;;;;;;15.90;99.90;;;;;;5068873;28;19912;-77
2023/05/13 13:05:32;;;;;;;;;;;16.10;99.90;;;;;;5068737;28;19917;-77
2023/05/13 13:07:59;;;;;;;;;;;16.20;99.90;;;;;;5068905;28;19937;-76
2023/05/13 13:10:25;;;;;;;;;;;16.30;99.90;;;;;;5069110;28;19991;-76
2023/05/13 13:12:51;;;;;;;;;;;16.40;99.90;;;;;;5068914;28;19999;-75
2023/05/13 13:15:16;;;;;;;;;;;16.30;99.90;;;;;;5068701;28;19915;-76
2023/05/13 13:17:42;;;;;;;;;;;16.30;99.90;;;;;;5069033;28;19915;-77
2023/05/13 13:20:08;;;;;;;;;;;16.40;99.90;;;;;;5069439;28;20030;-77
2023/05/13 13:22:35;;;;;;;;;;;16.50;99.90;;;;;;5067623;28;19909;-76
2023/05/13 13:25:02;;;;;;;;;;;16.60;99.90;;;;;;5066728;28;20305;-77
2023/05/13 13:27:27;;;;;;;;;;;16.50;99.30;;;;;;5067399;28;19908;-77
2023/05/13 13:29:53;;;;;;;;;;;16.50;99.90;;;;;;5068269;28;20292;-76
2023/05/13 13:32:18;;;;;;;;;;;16.40;99.70;;;;;;5068719;28;19909;-78
2023/05/13 13:34:44;;;;;;;;;;;16.50;99.30;;;;;;5068350;28;19915;-78
2023/05/13 13:37:09;;;;;;;;;;;16.50;99.40;;;;;;5068807;28;19963;-78
2023/05/13 13:39:35;;;;;;;;;;;16.50;99.90;;;;;;5068746;28;19908;-76
2023/05/13 13:42:03;;;;;;;;;;;16.60;99.90;;;;;;5068351;28;19908;-77
2023/05/13 13:44:29;;;;;;;;;;;16.60;99.80;;;;;;5068195;28;19908;-76
2023/05/13 13:46:54;;;;;;;;;;;16.60;99.90;;;;;;5068635;28;20404;-77
2023/05/13 13:49:21;;;;;;;;;;;16.70;99.90;;;;;;5068368;28;19908;-77
2023/05/13 13:51:46;;;;;;;;;;;16.70;99.90;;;;;;5068576;28;20454;-76
2023/05/13 13:54:12;;;;;;;;;;;16.50;99.60;;;;;;5068504;28;20003;-78
2023/05/13 13:56:38;;;;;;;;;;;16.40;99.00;;;;;;5068542;28;20368;-79
2023/05/13 13:59:03;;;;;;;;;;;16.30;99.90;;;;;;5068628;28;20439;-78
2023/05/13 14:01:29;;;;;;;;;;;16.30;99.90;;;;;;5068359;28;19916;-77
2023/05/13 14:04:11;;;;;;;;;;;16.10;99.90;;;;;;5068393;28;19909;-78
2023/05/13 14:06:36;;;;;;;;;;;15.80;99.90;;;;;;5068180;28;19916;-78
2023/05/13 14:09:02;;;;;;;;;;;15.70;99.90;;;;;;5068695;28;19993;-78
2023/05/13 14:11:28;;;;;;;;;;;15.50;99.90;;;;;;5072064;28;19908;-77
2023/05/13 14:13:53;;;;;;;;;;;15.40;99.90;;;;;;5071905;28;19908;-77